sensor_id;sensor_type;location;lat;lon;timestamp;P1;durP1;ratioP1;P2;durP2;ratioP2
8568;SDS011;4322;51.104;-4.162;2022-09-28T00:01:04;5.20;;;5.00;;
8568;SDS011;4322;51.104;-4.162;2022-09-28T00:03:33;5.27;;;5.07;;
8568;SDS011;4322;51.104;-4.162;2022-09-28T00:06:01;4.97;;;4.77;;
8568;SDS011;4322;51.104;-4.162;2022-09-28T00:08:31;5.00;;;4.80;;
8568;SDS011;4322;51.104;-4.162;2022-09-28T00:11:00;4.70;;;4.50;;
8568;SDS011;4322;51.104;-4.162;2022-09-28T00:13:30;4.60;;;4.40;;
8568;SDS011;4322;51.104;-4.162;2022-09-28T00:16:00;4.30;;;4.10;;
8568;SDS011;4322;51.104;-4.162;2022-09-28T00:18:29;4.33;;;4.13;;
8568;SDS011;4322;51.104;-4.162;2022-09-28T00:21:04;4.17;;;3.97;;
8568;SDS011;4322;51.104;-4.162;2022-09-28T00:23:34;4.27;;;4.07;;
8568;SDS011;4322;51.104;-4.162;2022-09-28T00:26:24;4.43;;;4.23;;
8568;SDS011;4322;51.104;-4.162;2022-09-28T00:28:54;4.43;;;4.23;;
8568;SDS011;4322;51.104;-4.162;2022-09-28T00:31:23;4.63;;;4.43;;
8568;SDS011;4322;51.104;-4.162;2022-09-28T00:33:51;4.60;;;4.40;;
8568;SDS011;4322;51.104;-4.162;2022-09-28T00:36:22;5.10;;;4.90;;
8568;SDS011;4322;51.104;-4.162;2022-09-28T00:38:52;5.23;;;5.03;;
8568;SDS011;4322;51.104;-4.162;2022-09-28T00:41:20;4.87;;;4.67;;
8568;SDS011;4322;51.104;-4.162;2022-09-28T00:43:49;4.60;;;4.40;;
8568;SDS011;4322;51.104;-4.162;2022-09-28T00:46:19;4.47;;;4.27;;
8568;SDS011;4322;51.104;-4.162;2022-09-28T00:48:56;4.60;;;4.40;;
8568;SDS011;4322;51.104;-4.162;2022-09-28T00:51:28;4.67;;;4.47;;
8568;SDS011;4322;51.104;-4.162;2022-09-28T00:53:58;3.90;;;3.80;;
8568;SDS011;4322;51.104;-4.162;2022-09-28T00:56:28;3.77;;;3.67;;
8568;SDS011;4322;51.104;-4.162;2022-09-28T00:59:00;3.83;;;3.73;;
8568;SDS011;4322;51.104;-4.162;2022-09-28T01:01:31;3.90;;;3.80;;
8568;SDS011;4322;51.104;-4.162;2022-09-28T01:03:59;3.53;;;3.43;;
8568;SDS011;4322;51.104;-4.162;2022-09-28T01:06:31;3.37;;;3.27;;
8568;SDS011;4322;51.104;-4.162;2022-09-28T01:09:01;2.60;;;2.50;;
8568;SDS011;4322;51.104;-4.162;2022-09-28T01:11:32;2.30;;;2.20;;
8568;SDS011;4322;51.104;-4.162;2022-09-28T01:14:01;4.50;;;4.30;;
8568;SDS011;4322;51.104;-4.162;2022-09-28T01:16:36;2.97;;;2.87;;
8568;SDS011;4322;51.104;-4.162;2022-09-28T01:19:16;2.87;;;2.77;;
8568;SDS011;4322;51.104;-4.162;2022-09-28T01:22:18;2.50;;;2.40;;
8568;SDS011;4322;51.104;-4.162;2022-09-28T01:24:55;2.07;;;2.07;;
8568;SDS011;4322;51.104;-4.162;2022-09-28T01:27:34;2.50;;;2.40;;
8568;SDS011;4322;51.104;-4.162;2022-09-28T01:30:07;2.17;;;2.13;;
8568;SDS011;4322;51.104;-4.162;2022-09-28T01:32:39;1.67;;;1.67;;
8568;SDS011;4322;51.104;-4.162;2022-09-28T01:35:15;2.40;;;2.30;;
8568;SDS011;4322;51.104;-4.162;2022-09-28T01:37:48;2.30;;;2.20;;
8568;SDS011;4322;51.104;-4.162;2022-09-28T01:40:19;2.10;;;2.10;;
8568;SDS011;4322;51.104;-4.162;2022-09-28T01:42:52;2.70;;;2.60;;
8568;SDS011;4322;51.104;-4.162;2022-09-28T01:45:25;2.07;;;2.07;;
8568;SDS011;4322;51.104;-4.162;2022-09-28T01:47:57;1.90;;;1.90;;
8568;SDS011;4322;51.104;-4.162;2022-09-28T01:50:29;2.47;;;2.37;;
8568;SDS011;4322;51.104;-4.162;2022-09-28T01:53:03;2.90;;;2.80;;
8568;SDS011;4322;51.104;-4.162;2022-09-28T01:55:37;1.83;;;1.83;;
8568;SDS011;4322;51.104;-4.162;2022-09-28T01:58:10;2.07;;;2.07;;
8568;SDS011;4322;51.104;-4.162;2022-09-28T02:00:45;2.00;;;2.00;;
8568;SDS011;4322;51.104;-4.162;2022-09-28T02:03:20;1.70;;;1.70;;
8568;SDS011;4322;51.104;-4.162;2022-09-28T02:05:53;2.10;;;2.10;;
8568;SDS011;4322;51.104;-4.162;2022-09-28T02:08:24;2.13;;;2.10;;
8568;SDS011;4322;51.104;-4.162;2022-09-28T02:10:59;1.90;;;1.90;;
8568;SDS011;4322;51.104;-4.162;2022-09-28T02:13:34;2.40;;;2.30;;
8568;SDS011;4322;51.104;-4.162;2022-09-28T02:16:08;1.80;;;1.80;;
8568;SDS011;4322;51.104;-4.162;2022-09-28T02:18:39;2.00;;;2.00;;
8568;SDS011;4322;51.104;-4.162;2022-09-28T02:21:10;2.60;;;2.50;;
8568;SDS011;4322;51.104;-4.162;2022-09-28T02:23:44;2.30;;;2.20;;
8568;SDS011;4322;51.104;-4.162;2022-09-28T02:26:19;1.60;;;1.60;;
8568;SDS011;4322;51.104;-4.162;2022-09-28T02:28:52;1.90;;;1.90;;
8568;SDS011;4322;51.104;-4.162;2022-09-28T02:31:20;1.77;;;1.77;;
8568;SDS011;4322;51.104;-4.162;2022-09-28T02:33:48;1.40;;;1.40;;
8568;SDS011;4322;51.104;-4.162;2022-09-28T02:36:18;1.30;;;1.30;;
8568;SDS011;4322;51.104;-4.162;2022-09-28T02:38:46;1.60;;;1.60;;
8568;SDS011;4322;51.104;-4.162;2022-09-28T02:41:18;1.37;;;1.37;;
8568;SDS011;4322;51.104;-4.162;2022-09-28T02:44:02;1.40;;;1.40;;
8568;SDS011;4322;51.104;-4.162;2022-09-28T02:46:42;1.10;;;1.10;;
8568;SDS011;4322;51.104;-4.162;2022-09-28T02:49:20;1.30;;;1.30;;
8568;SDS011;4322;51.104;-4.162;2022-09-28T02:51:59;1.20;;;1.20;;
8568;SDS011;4322;51.104;-4.162;2022-09-28T02:57:47;1.30;;;1.30;;
8568;SDS011;4322;51.104;-4.162;2022-09-28T03:00:28;1.53;;;1.53;;
8568;SDS011;4322;51.104;-4.162;2022-09-28T03:03:05;1.30;;;1.30;;
8568;SDS011;4322;51.104;-4.162;2022-09-28T03:05:51;1.53;;;1.53;;
8568;SDS011;4322;51.104;-4.162;2022-09-28T03:08:24;1.30;;;1.30;;
8568;SDS011;4322;51.104;-4.162;2022-09-28T03:10:58;1.40;;;1.40;;
8568;SDS011;4322;51.104;-4.162;2022-09-28T03:13:29;1.10;;;1.10;;
8568;SDS011;4322;51.104;-4.162;2022-09-28T03:16:07;1.13;;;1.13;;
8568;SDS011;4322;51.104;-4.162;2022-09-28T03:18:36;1.40;;;1.40;;
8568;SDS011;4322;51.104;-4.162;2022-09-28T03:21:04;1.57;;;1.57;;
8568;SDS011;4322;51.104;-4.162;2022-09-28T03:23:32;1.40;;;1.40;;
8568;SDS011;4322;51.104;-4.162;2022-09-28T03:26:00;1.30;;;1.30;;
8568;SDS011;4322;51.104;-4.162;2022-09-28T03:28:28;1.50;;;1.50;;
8568;SDS011;4322;51.104;-4.162;2022-09-28T03:30:56;1.60;;;1.60;;
8568;SDS011;4322;51.104;-4.162;2022-09-28T03:33:25;1.57;;;1.57;;
8568;SDS011;4322;51.104;-4.162;2022-09-28T03:35:53;1.40;;;1.40;;
8568;SDS011;4322;51.104;-4.162;2022-09-28T03:38:21;1.10;;;1.10;;
8568;SDS011;4322;51.104;-4.162;2022-09-28T03:40:53;0.97;;;0.97;;
8568;SDS011;4322;51.104;-4.162;2022-09-28T03:43:21;1.03;;;1.03;;
8568;SDS011;4322;51.104;-4.162;2022-09-28T03:45:50;1.00;;;1.00;;
8568;SDS011;4322;51.104;-4.162;2022-09-28T03:48:20;0.87;;;0.87;;
8568;SDS011;4322;51.104;-4.162;2022-09-28T03:50:57;1.10;;;1.10;;
8568;SDS011;4322;51.104;-4.162;2022-09-28T03:53:26;1.10;;;1.10;;
8568;SDS011;4322;51.104;-4.162;2022-09-28T03:55:55;1.13;;;1.13;;
8568;SDS011;4322;51.104;-4.162;2022-09-28T03:58:23;1.30;;;1.30;;
8568;SDS011;4322;51.104;-4.162;2022-09-28T04:00:50;0.90;;;0.90;;
8568;SDS011;4322;51.104;-4.162;2022-09-28T04:03:19;1.10;;;1.10;;
8568;SDS011;4322;51.104;-4.162;2022-09-28T04:05:47;0.80;;;0.80;;
8568;SDS011;4322;51.104;-4.162;2022-09-28T04:08:17;1.00;;;1.00;;
8568;SDS011;4322;51.104;-4.162;2022-09-28T04:10:46;1.03;;;1.03;;
8568;SDS011;4322;51.104;-4.162;2022-09-28T04:13:14;1.17;;;1.17;;
8568;SDS011;4322;51.104;-4.162;2022-09-28T04:15:42;1.10;;;1.10;;
8568;SDS011;4322;51.104;-4.162;2022-09-28T04:18:10;0.90;;;0.90;;
8568;SDS011;4322;51.104;-4.162;2022-09-28T04:20:38;1.00;;;1.00;;
8568;SDS011;4322;51.104;-4.162;2022-09-28T04:23:10;0.97;;;0.97;;
8568;SDS011;4322;51.104;-4.162;2022-09-28T04:25:40;1.20;;;1.20;;
8568;SDS011;4322;51.104;-4.162;2022-09-28T04:28:11;1.00;;;1.00;;
8568;SDS011;4322;51.104;-4.162;2022-09-28T04:30:56;0.90;;;0.90;;
8568;SDS011;4322;51.104;-4.162;2022-09-28T04:33:24;1.00;;;1.00;;
8568;SDS011;4322;51.104;-4.162;2022-09-28T04:35:52;1.00;;;1.00;;
8568;SDS011;4322;51.104;-4.162;2022-09-28T04:38:20;0.90;;;0.90;;
8568;SDS011;4322;51.104;-4.162;2022-09-28T04:41:09;1.00;;;1.00;;
8568;SDS011;4322;51.104;-4.162;2022-09-28T04:43:37;1.10;;;1.10;;
8568;SDS011;4322;51.104;-4.162;2022-09-28T04:46:05;0.90;;;0.90;;
8568;SDS011;4322;51.104;-4.162;2022-09-28T04:48:33;1.00;;;1.00;;
8568;SDS011;4322;51.104;-4.162;2022-09-28T04:51:01;1.30;;;1.30;;
8568;SDS011;4322;51.104;-4.162;2022-09-28T04:53:31;1.20;;;1.20;;
8568;SDS011;4322;51.104;-4.162;2022-09-28T04:56:00;1.20;;;1.20;;
8568;SDS011;4322;51.104;-4.162;2022-09-28T04:58:31;1.10;;;1.10;;
8568;SDS011;4322;51.104;-4.162;2022-09-28T05:01:01;1.20;;;1.20;;
8568;SDS011;4322;51.104;-4.162;2022-09-28T05:03:32;1.10;;;1.10;;
8568;SDS011;4322;51.104;-4.162;2022-09-28T05:06:00;1.10;;;1.10;;
8568;SDS011;4322;51.104;-4.162;2022-09-28T05:08:28;1.13;;;1.13;;
8568;SDS011;4322;51.104;-4.162;2022-09-28T05:10:57;1.10;;;1.10;;
8568;SDS011;4322;51.104;-4.162;2022-09-28T05:13:26;1.43;;;1.43;;
8568;SDS011;4322;51.104;-4.162;2022-09-28T05:15:56;1.43;;;1.43;;
8568;SDS011;4322;51.104;-4.162;2022-09-28T05:18:30;3.30;;;3.20;;
8568;SDS011;4322;51.104;-4.162;2022-09-28T05:20:59;2.80;;;2.70;;
8568;SDS011;4322;51.104;-4.162;2022-09-28T05:23:27;1.97;;;1.97;;
8568;SDS011;4322;51.104;-4.162;2022-09-28T05:25:55;2.70;;;2.60;;
8568;SDS011;4322;51.104;-4.162;2022-09-28T05:28:23;2.80;;;2.70;;
8568;SDS011;4322;51.104;-4.162;2022-09-28T05:30:58;3.43;;;3.33;;
8568;SDS011;4322;51.104;-4.162;2022-09-28T05:33:26;2.90;;;2.80;;
8568;SDS011;4322;51.104;-4.162;2022-09-28T05:35:56;2.63;;;2.53;;
8568;SDS011;4322;51.104;-4.162;2022-09-28T05:38:27;2.63;;;2.53;;
8568;SDS011;4322;51.104;-4.162;2022-09-28T05:40:55;2.80;;;2.70;;
8568;SDS011;4322;51.104;-4.162;2022-09-28T05:43:26;1.97;;;1.97;;
8568;SDS011;4322;51.104;-4.162;2022-09-28T05:45:54;2.17;;;2.10;;
8568;SDS011;4322;51.104;-4.162;2022-09-28T05:48:23;2.50;;;2.40;;
8568;SDS011;4322;51.104;-4.162;2022-09-28T05:50:53;2.50;;;2.40;;
8568;SDS011;4322;51.104;-4.162;2022-09-28T05:53:21;2.40;;;2.30;;
8568;SDS011;4322;51.104;-4.162;2022-09-28T05:55:51;2.30;;;2.20;;
8568;SDS011;4322;51.104;-4.162;2022-09-28T05:58:19;2.50;;;2.40;;
8568;SDS011;4322;51.104;-4.162;2022-09-28T06:00:52;2.17;;;2.13;;
8568;SDS011;4322;51.104;-4.162;2022-09-28T06:03:20;1.80;;;1.80;;
8568;SDS011;4322;51.104;-4.162;2022-09-28T06:05:50;2.30;;;2.20;;
8568;SDS011;4322;51.104;-4.162;2022-09-28T06:08:18;2.33;;;2.23;;
8568;SDS011;4322;51.104;-4.162;2022-09-28T06:10:46;2.70;;;2.60;;
8568;SDS011;4322;51.104;-4.162;2022-09-28T06:13:14;2.50;;;2.40;;
8568;SDS011;4322;51.104;-4.162;2022-09-28T06:15:42;2.10;;;2.10;;
8568;SDS011;4322;51.104;-4.162;2022-09-28T06:18:12;2.30;;;2.20;;
8568;SDS011;4322;51.104;-4.162;2022-09-28T06:20:41;2.40;;;2.30;;
8568;SDS011;4322;51.104;-4.162;2022-09-28T06:23:11;1.90;;;1.90;;
8568;SDS011;4322;51.104;-4.162;2022-09-28T06:25:40;1.80;;;1.80;;
8568;SDS011;4322;51.104;-4.162;2022-09-28T06:28:08;1.80;;;1.80;;
8568;SDS011;4322;51.104;-4.162;2022-09-28T06:30:37;2.10;;;2.10;;
8568;SDS011;4322;51.104;-4.162;2022-09-28T06:33:06;2.00;;;2.00;;
8568;SDS011;4322;51.104;-4.162;2022-09-28T06:35:37;2.10;;;2.10;;
8568;SDS011;4322;51.104;-4.162;2022-09-28T06:38:08;2.20;;;2.10;;
8568;SDS011;4322;51.104;-4.162;2022-09-28T06:40:37;1.83;;;1.83;;
8568;SDS011;4322;51.104;-4.162;2022-09-28T06:43:06;1.67;;;1.67;;
8568;SDS011;4322;51.104;-4.162;2022-09-28T06:45:37;1.40;;;1.40;;
8568;SDS011;4322;51.104;-4.162;2022-09-28T06:48:05;1.70;;;1.70;;
8568;SDS011;4322;51.104;-4.162;2022-09-28T06:50:35;1.60;;;1.60;;
8568;SDS011;4322;51.104;-4.162;2022-09-28T06:53:05;1.60;;;1.60;;
8568;SDS011;4322;51.104;-4.162;2022-09-28T06:55:38;1.67;;;1.67;;
8568;SDS011;4322;51.104;-4.162;2022-09-28T06:58:08;1.60;;;1.60;;
8568;SDS011;4322;51.104;-4.162;2022-09-28T07:00:37;2.10;;;2.10;;
8568;SDS011;4322;51.104;-4.162;2022-09-28T07:03:07;2.80;;;2.70;;
8568;SDS011;4322;51.104;-4.162;2022-09-28T07:05:40;3.10;;;3.00;;
8568;SDS011;4322;51.104;-4.162;2022-09-28T07:08:09;3.37;;;3.27;;
8568;SDS011;4322;51.104;-4.162;2022-09-28T07:10:41;3.30;;;3.20;;
8568;SDS011;4322;51.104;-4.162;2022-09-28T07:13:10;3.47;;;3.37;;
8568;SDS011;4322;51.104;-4.162;2022-09-28T07:15:59;3.40;;;3.30;;
8568;SDS011;4322;51.104;-4.162;2022-09-28T07:18:28;3.50;;;3.40;;
8568;SDS011;4322;51.104;-4.162;2022-09-28T07:20:56;3.20;;;3.10;;
8568;SDS011;4322;51.104;-4.162;2022-09-28T07:23:24;3.63;;;3.53;;
8568;SDS011;4322;51.104;-4.162;2022-09-28T07:25:56;4.20;;;4.00;;
8568;SDS011;4322;51.104;-4.162;2022-09-28T07:28:31;5.27;;;5.07;;
8568;SDS011;4322;51.104;-4.162;2022-09-28T07:31:00;3.43;;;3.33;;
8568;SDS011;4322;51.104;-4.162;2022-09-28T07:33:29;3.10;;;3.00;;
8568;SDS011;4322;51.104;-4.162;2022-09-28T07:35:58;3.50;;;3.40;;
8568;SDS011;4322;51.104;-4.162;2022-09-28T07:38:31;3.70;;;3.60;;
8568;SDS011;4322;51.104;-4.162;2022-09-28T07:41:01;3.80;;;3.70;;
8568;SDS011;4322;51.104;-4.162;2022-09-28T07:43:37;3.13;;;3.03;;
8568;SDS011;4322;51.104;-4.162;2022-09-28T07:46:06;3.23;;;3.13;;
8568;SDS011;4322;51.104;-4.162;2022-09-28T07:48:38;3.40;;;3.30;;
8568;SDS011;4322;51.104;-4.162;2022-09-28T07:51:07;3.47;;;3.37;;
8568;SDS011;4322;51.104;-4.162;2022-09-28T07:53:35;3.73;;;3.63;;
8568;SDS011;4322;51.104;-4.162;2022-09-28T07:56:06;3.50;;;3.40;;
8568;SDS011;4322;51.104;-4.162;2022-09-28T07:58:35;2.97;;;2.87;;
8568;SDS011;4322;51.104;-4.162;2022-09-28T08:01:04;3.20;;;3.10;;
8568;SDS011;4322;51.104;-4.162;2022-09-28T08:03:36;2.90;;;2.80;;
8568;SDS011;4322;51.104;-4.162;2022-09-28T08:06:05;2.43;;;2.33;;
8568;SDS011;4322;51.104;-4.162;2022-09-28T08:08:36;2.60;;;2.50;;
8568;SDS011;4322;51.104;-4.162;2022-09-28T08:11:11;2.03;;;2.03;;
8568;SDS011;4322;51.104;-4.162;2022-09-28T08:13:41;1.70;;;1.70;;
8568;SDS011;4322;51.104;-4.162;2022-09-28T08:16:11;2.37;;;2.27;;
8568;SDS011;4322;51.104;-4.162;2022-09-28T08:18:39;2.17;;;2.10;;
8568;SDS011;4322;51.104;-4.162;2022-09-28T08:21:09;2.13;;;2.10;;
8568;SDS011;4322;51.104;-4.162;2022-09-28T08:23:57;1.80;;;1.80;;
8568;SDS011;4322;51.104;-4.162;2022-09-28T08:26:26;1.50;;;1.50;;
8568;SDS011;4322;51.104;-4.162;2022-09-28T08:28:55;1.37;;;1.37;;
8568;SDS011;4322;51.104;-4.162;2022-09-28T08:31:23;1.07;;;1.07;;
8568;SDS011;4322;51.104;-4.162;2022-09-28T08:33:51;1.00;;;1.00;;
8568;SDS011;4322;51.104;-4.162;2022-09-28T08:36:19;1.70;;;1.70;;
8568;SDS011;4322;51.104;-4.162;2022-09-28T08:38:47;1.80;;;1.80;;
8568;SDS011;4322;51.104;-4.162;2022-09-28T08:41:15;1.77;;;1.77;;
8568;SDS011;4322;51.104;-4.162;2022-09-28T08:46:50;2.37;;;2.27;;
8568;SDS011;4322;51.104;-4.162;2022-09-28T08:49:23;2.00;;;2.00;;
8568;SDS011;4322;51.104;-4.162;2022-09-28T08:51:56;1.70;;;1.70;;
8568;SDS011;4322;51.104;-4.162;2022-09-28T08:54:29;1.70;;;1.70;;
8568;SDS011;4322;51.104;-4.162;2022-09-28T08:57:04;1.63;;;1.63;;
8568;SDS011;4322;51.104;-4.162;2022-09-28T08:59:49;1.30;;;1.30;;
8568;SDS011;4322;51.104;-4.162;2022-09-28T09:02:20;1.40;;;1.40;;
8568;SDS011;4322;51.104;-4.162;2022-09-28T09:04:52;1.60;;;1.60;;
8568;SDS011;4322;51.104;-4.162;2022-09-28T09:07:29;1.37;;;1.37;;
8568;SDS011;4322;51.104;-4.162;2022-09-28T09:10:18;1.40;;;1.40;;
8568;SDS011;4322;51.104;-4.162;2022-09-28T09:13:05;1.40;;;1.40;;
8568;SDS011;4322;51.104;-4.162;2022-09-28T09:15:46;1.40;;;1.40;;
8568;SDS011;4322;51.104;-4.162;2022-09-28T09:18:23;1.23;;;1.23;;
8568;SDS011;4322;51.104;-4.162;2022-09-28T09:21:01;1.30;;;1.30;;
8568;SDS011;4322;51.104;-4.162;2022-09-28T09:23:36;1.20;;;1.20;;
8568;SDS011;4322;51.104;-4.162;2022-09-28T09:26:11;1.40;;;1.40;;
8568;SDS011;4322;51.104;-4.162;2022-09-28T09:32:00;1.43;;;1.43;;
8568;SDS011;4322;51.104;-4.162;2022-09-28T09:37:46;1.10;;;1.10;;
8568;SDS011;4322;51.104;-4.162;2022-09-28T09:40:27;1.40;;;1.40;;
8568;SDS011;4322;51.104;-4.162;2022-09-28T09:43:11;1.40;;;1.40;;
8568;SDS011;4322;51.104;-4.162;2022-09-28T09:45:59;1.30;;;1.30;;
8568;SDS011;4322;51.104;-4.162;2022-09-28T09:48:39;1.30;;;1.30;;
8568;SDS011;4322;51.104;-4.162;2022-09-28T09:51:15;1.40;;;1.40;;
8568;SDS011;4322;51.104;-4.162;2022-09-28T09:53:51;1.40;;;1.40;;
8568;SDS011;4322;51.104;-4.162;2022-09-28T09:56:27;1.43;;;1.43;;
8568;SDS011;4322;51.104;-4.162;2022-09-28T09:59:04;1.37;;;1.37;;
8568;SDS011;4322;51.104;-4.162;2022-09-28T10:01:37;1.40;;;1.40;;
8568;SDS011;4322;51.104;-4.162;2022-09-28T10:04:11;1.50;;;1.50;;
8568;SDS011;4322;51.104;-4.162;2022-09-28T10:06:45;1.30;;;1.30;;
8568;SDS011;4322;51.104;-4.162;2022-09-28T10:09:17;1.50;;;1.50;;
8568;SDS011;4322;51.104;-4.162;2022-09-28T10:11:50;1.50;;;1.50;;
8568;SDS011;4322;51.104;-4.162;2022-09-28T10:14:20;1.20;;;1.20;;
8568;SDS011;4322;51.104;-4.162;2022-09-28T10:16:49;1.27;;;1.27;;
8568;SDS011;4322;51.104;-4.162;2022-09-28T10:19:24;1.37;;;1.37;;
8568;SDS011;4322;51.104;-4.162;2022-09-28T10:21:57;1.20;;;1.20;;
8568;SDS011;4322;51.104;-4.162;2022-09-28T10:24:28;1.60;;;1.60;;
8568;SDS011;4322;51.104;-4.162;2022-09-28T10:26:59;1.40;;;1.40;;
8568;SDS011;4322;51.104;-4.162;2022-09-28T10:29:36;1.20;;;1.20;;
8568;SDS011;4322;51.104;-4.162;2022-09-28T10:32:17;1.23;;;1.23;;
8568;SDS011;4322;51.104;-4.162;2022-09-28T10:34:48;1.30;;;1.30;;
8568;SDS011;4322;51.104;-4.162;2022-09-28T10:37:17;1.27;;;1.27;;
8568;SDS011;4322;51.104;-4.162;2022-09-28T10:39:46;1.10;;;1.10;;
8568;SDS011;4322;51.104;-4.162;2022-09-28T10:42:17;1.30;;;1.30;;
8568;SDS011;4322;51.104;-4.162;2022-09-28T10:44:50;1.30;;;1.30;;
8568;SDS011;4322;51.104;-4.162;2022-09-28T10:47:21;1.07;;;1.07;;
8568;SDS011;4322;51.104;-4.162;2022-09-28T10:49:52;1.40;;;1.40;;
8568;SDS011;4322;51.104;-4.162;2022-09-28T10:52:32;1.07;;;1.07;;
8568;SDS011;4322;51.104;-4.162;2022-09-28T10:55:25;1.33;;;1.33;;
8568;SDS011;4322;51.104;-4.162;2022-09-28T10:57:55;1.20;;;1.20;;
8568;SDS011;4322;51.104;-4.162;2022-09-28T11:00:31;1.20;;;1.20;;
8568;SDS011;4322;51.104;-4.162;2022-09-28T11:03:03;1.20;;;1.20;;
8568;SDS011;4322;51.104;-4.162;2022-09-28T11:05:33;1.20;;;1.20;;
8568;SDS011;4322;51.104;-4.162;2022-09-28T11:08:05;1.20;;;1.20;;
8568;SDS011;4322;51.104;-4.162;2022-09-28T11:10:34;1.00;;;1.00;;
8568;SDS011;4322;51.104;-4.162;2022-09-28T11:13:02;1.10;;;1.10;;
8568;SDS011;4322;51.104;-4.162;2022-09-28T11:15:35;1.23;;;1.23;;
8568;SDS011;4322;51.104;-4.162;2022-09-28T11:18:16;1.20;;;1.20;;
8568;SDS011;4322;51.104;-4.162;2022-09-28T11:20:49;1.10;;;1.10;;
8568;SDS011;4322;51.104;-4.162;2022-09-28T11:23:18;1.30;;;1.30;;
8568;SDS011;4322;51.104;-4.162;2022-09-28T11:25:55;1.30;;;1.30;;
8568;SDS011;4322;51.104;-4.162;2022-09-28T11:28:28;1.30;;;1.30;;
8568;SDS011;4322;51.104;-4.162;2022-09-28T11:30:58;1.30;;;1.30;;
8568;SDS011;4322;51.104;-4.162;2022-09-28T11:33:29;1.50;;;1.50;;
8568;SDS011;4322;51.104;-4.162;2022-09-28T11:36:04;1.30;;;1.30;;
8568;SDS011;4322;51.104;-4.162;2022-09-28T11:38:43;1.40;;;1.40;;
8568;SDS011;4322;51.104;-4.162;2022-09-28T11:41:35;1.30;;;1.30;;
8568;SDS011;4322;51.104;-4.162;2022-09-28T11:44:33;1.33;;;1.33;;
8568;SDS011;4322;51.104;-4.162;2022-09-28T11:47:09;1.40;;;1.40;;
8568;SDS011;4322;51.104;-4.162;2022-09-28T11:49:47;1.40;;;1.40;;
8568;SDS011;4322;51.104;-4.162;2022-09-28T11:52:23;1.30;;;1.30;;
8568;SDS011;4322;51.104;-4.162;2022-09-28T11:54:55;1.80;;;1.80;;
8568;SDS011;4322;51.104;-4.162;2022-09-28T11:57:27;2.00;;;2.00;;
8568;SDS011;4322;51.104;-4.162;2022-09-28T12:00:01;2.50;;;2.40;;
8568;SDS011;4322;51.104;-4.162;2022-09-28T12:02:32;2.63;;;2.53;;
8568;SDS011;4322;51.104;-4.162;2022-09-28T12:05:07;4.33;;;4.13;;
8568;SDS011;4322;51.104;-4.162;2022-09-28T12:07:47;4.90;;;4.70;;
8568;SDS011;4322;51.104;-4.162;2022-09-28T12:10:20;5.00;;;4.80;;
8568;SDS011;4322;51.104;-4.162;2022-09-28T12:12:58;5.50;;;5.30;;
8568;SDS011;4322;51.104;-4.162;2022-09-28T12:15:33;6.50;;;6.20;;
8568;SDS011;4322;51.104;-4.162;2022-09-28T12:18:32;6.90;;;6.60;;
8568;SDS011;4322;51.104;-4.162;2022-09-28T12:21:08;6.60;;;6.30;;
8568;SDS011;4322;51.104;-4.162;2022-09-28T12:23:49;6.77;;;6.47;;
8568;SDS011;4322;51.104;-4.162;2022-09-28T12:26:24;4.80;;;4.60;;
8568;SDS011;4322;51.104;-4.162;2022-09-28T12:29:04;4.63;;;4.43;;
8568;SDS011;4322;51.104;-4.162;2022-09-28T12:31:49;3.30;;;3.20;;
8568;SDS011;4322;51.104;-4.162;2022-09-28T12:34:22;3.67;;;3.57;;
8568;SDS011;4322;51.104;-4.162;2022-09-28T12:36:54;3.13;;;3.03;;
8568;SDS011;4322;51.104;-4.162;2022-09-28T12:39:41;3.70;;;3.60;;
8568;SDS011;4322;51.104;-4.162;2022-09-28T12:45:25;2.37;;;2.27;;
8568;SDS011;4322;51.104;-4.162;2022-09-28T12:48:34;2.00;;;2.00;;
8568;SDS011;4322;51.104;-4.162;2022-09-28T12:51:41;2.10;;;2.10;;
8568;SDS011;4322;51.104;-4.162;2022-09-28T12:54:21;1.90;;;1.90;;
8568;SDS011;4322;51.104;-4.162;2022-09-28T12:57:06;1.90;;;1.90;;
8568;SDS011;4322;51.104;-4.162;2022-09-28T12:59:49;2.00;;;2.00;;
8568;SDS011;4322;51.104;-4.162;2022-09-28T13:02:38;2.00;;;2.00;;
8568;SDS011;4322;51.104;-4.162;2022-09-28T13:05:34;2.00;;;2.00;;
8568;SDS011;4322;51.104;-4.162;2022-09-28T13:08:15;2.30;;;2.20;;
8568;SDS011;4322;51.104;-4.162;2022-09-28T13:10:53;2.10;;;2.10;;
8568;SDS011;4322;51.104;-4.162;2022-09-28T13:13:36;2.00;;;2.00;;
8568;SDS011;4322;51.104;-4.162;2022-09-28T13:16:17;2.37;;;2.27;;
8568;SDS011;4322;51.104;-4.162;2022-09-28T13:18:55;2.40;;;2.30;;
8568;SDS011;4322;51.104;-4.162;2022-09-28T13:21:32;2.80;;;2.70;;
8568;SDS011;4322;51.104;-4.162;2022-09-28T13:24:07;2.73;;;2.63;;
8568;SDS011;4322;51.104;-4.162;2022-09-28T13:27:00;2.60;;;2.50;;
8568;SDS011;4322;51.104;-4.162;2022-09-28T13:29:32;2.37;;;2.27;;
8568;SDS011;4322;51.104;-4.162;2022-09-28T13:32:01;1.80;;;1.80;;
8568;SDS011;4322;51.104;-4.162;2022-09-28T13:34:31;1.90;;;1.90;;
8568;SDS011;4322;51.104;-4.162;2022-09-28T13:37:16;1.73;;;1.73;;
8568;SDS011;4322;51.104;-4.162;2022-09-28T13:39:47;1.60;;;1.60;;
8568;SDS011;4322;51.104;-4.162;2022-09-28T13:45:21;2.10;;;2.10;;
8568;SDS011;4322;51.104;-4.162;2022-09-28T13:48:11;2.10;;;2.10;;
8568;SDS011;4322;51.104;-4.162;2022-09-28T13:50:50;2.10;;;2.10;;
8568;SDS011;4322;51.104;-4.162;2022-09-28T13:53:37;2.43;;;2.33;;
8568;SDS011;4322;51.104;-4.162;2022-09-28T13:56:24;1.97;;;1.97;;
8568;SDS011;4322;51.104;-4.162;2022-09-28T13:59:00;2.20;;;2.17;;
8568;SDS011;4322;51.104;-4.162;2022-09-28T14:01:38;2.60;;;2.50;;
8568;SDS011;4322;51.104;-4.162;2022-09-28T14:04:10;2.17;;;2.10;;
8568;SDS011;4322;51.104;-4.162;2022-09-28T14:06:42;1.90;;;1.90;;
8568;SDS011;4322;51.104;-4.162;2022-09-28T14:09:27;1.80;;;1.80;;
8568;SDS011;4322;51.104;-4.162;2022-09-28T14:12:25;2.27;;;2.17;;
8568;SDS011;4322;51.104;-4.162;2022-09-28T14:18:10;2.50;;;2.40;;
8568;SDS011;4322;51.104;-4.162;2022-09-28T14:20:54;1.97;;;1.97;;
8568;SDS011;4322;51.104;-4.162;2022-09-28T14:23:59;2.20;;;2.10;;
8568;SDS011;4322;51.104;-4.162;2022-09-28T14:26:54;2.50;;;2.40;;
8568;SDS011;4322;51.104;-4.162;2022-09-28T14:29:41;3.70;;;3.60;;
8568;SDS011;4322;51.104;-4.162;2022-09-28T14:32:22;3.00;;;2.90;;
8568;SDS011;4322;51.104;-4.162;2022-09-28T14:34:56;3.67;;;3.57;;
8568;SDS011;4322;51.104;-4.162;2022-09-28T14:37:39;4.83;;;4.63;;
8568;SDS011;4322;51.104;-4.162;2022-09-28T14:40:26;11.00;;;10.50;;
8568;SDS011;4322;51.104;-4.162;2022-09-28T14:43:19;7.30;;;7.00;;
8568;SDS011;4322;51.104;-4.162;2022-09-28T14:52:17;8.33;;;7.93;;
8568;SDS011;4322;51.104;-4.162;2022-09-28T14:55:06;7.27;;;6.97;;
8568;SDS011;4322;51.104;-4.162;2022-09-28T14:57:40;6.20;;;5.90;;
8568;SDS011;4322;51.104;-4.162;2022-09-28T15:00:13;5.63;;;5.43;;
8568;SDS011;4322;51.104;-4.162;2022-09-28T15:02:47;5.60;;;5.40;;
8568;SDS011;4322;51.104;-4.162;2022-09-28T15:05:19;7.03;;;6.73;;
8568;SDS011;4322;51.104;-4.162;2022-09-28T15:07:52;4.97;;;4.77;;
8568;SDS011;4322;51.104;-4.162;2022-09-28T15:10:22;4.80;;;4.60;;
8568;SDS011;4322;51.104;-4.162;2022-09-28T15:12:56;2.80;;;2.70;;
8568;SDS011;4322;51.104;-4.162;2022-09-28T15:15:28;2.40;;;2.30;;
8568;SDS011;4322;51.104;-4.162;2022-09-28T15:18:06;1.73;;;1.73;;
8568;SDS011;4322;51.104;-4.162;2022-09-28T15:20:52;1.90;;;1.90;;
8568;SDS011;4322;51.104;-4.162;2022-09-28T15:23:27;1.80;;;1.80;;
8568;SDS011;4322;51.104;-4.162;2022-09-28T15:26:01;1.77;;;1.77;;
8568;SDS011;4322;51.104;-4.162;2022-09-28T15:28:32;1.70;;;1.70;;
8568;SDS011;4322;51.104;-4.162;2022-09-28T15:31:01;1.60;;;1.60;;
8568;SDS011;4322;51.104;-4.162;2022-09-28T15:33:31;1.47;;;1.47;;
8568;SDS011;4322;51.104;-4.162;2022-09-28T15:36:18;1.60;;;1.60;;
8568;SDS011;4322;51.104;-4.162;2022-09-28T15:38:52;1.50;;;1.50;;
8568;SDS011;4322;51.104;-4.162;2022-09-28T15:41:23;1.60;;;1.60;;
8568;SDS011;4322;51.104;-4.162;2022-09-28T15:46:52;1.37;;;1.37;;
8568;SDS011;4322;51.104;-4.162;2022-09-28T15:49:34;1.40;;;1.40;;
8568;SDS011;4322;51.104;-4.162;2022-09-28T15:52:07;1.40;;;1.40;;
8568;SDS011;4322;51.104;-4.162;2022-09-28T15:54:51;1.60;;;1.60;;
8568;SDS011;4322;51.104;-4.162;2022-09-28T15:57:30;1.27;;;1.27;;
8568;SDS011;4322;51.104;-4.162;2022-09-28T16:00:03;1.00;;;1.00;;
8568;SDS011;4322;51.104;-4.162;2022-09-28T16:02:33;1.00;;;1.00;;
8568;SDS011;4322;51.104;-4.162;2022-09-28T16:05:02;1.13;;;1.13;;
8568;SDS011;4322;51.104;-4.162;2022-09-28T16:07:33;0.93;;;0.93;;
8568;SDS011;4322;51.104;-4.162;2022-09-28T16:15:53;1.20;;;1.20;;
8568;SDS011;4322;51.104;-4.162;2022-09-28T16:18:25;1.17;;;1.17;;